CheckWX is a tool to help pilots better visualize weather data.  It is not intended as a substitute for an official pre-flight weather briefing.

09:55:07 UTC

KFLP METAR
Marion County Regional Airport
Flippin, Arkansas, USA
Current

47 mins ago

KFLP 250908Z AUTO 00000KT 10SM SCT014 BKN037 OVC050 21/20 A2998 RMK AO2
Observed
Aug-25 @ 09:08 UTC
Visibility
10 SM
Flight Rules
VFR
Cloud Levels
  • Scattered at 1,400' AGL
  • Broken at 3,700' AGL
  • Overcast at 5,000' AGL
Temperature
21°C / 70°F
Dewpoint
20°C / 68°F
Humidity
94%
Altimeter
29.98" Hg
Pressure
1015.22 hPa
Previous

59 mins ago

KFLP 250856Z AUTO 00000KT 10SM BKN014 BKN037 OVC050 21/20 A2998 RMK AO2 SLP148 60000 T02060200 56019
Observed
Aug-25 @ 08:56 UTC
Visibility
10 SM
Flight Rules
MVFR
Cloud Levels
  • Broken at 1,400' AGL
  • Broken at 3,700' AGL
  • Overcast at 5,000' AGL
Temperature
21°C / 70°F
Dewpoint
20°C / 68°F
Humidity
94%
Altimeter
29.98" Hg
Pressure
1015.22 hPa
Previous

1 hour ago

KFLP 250836Z AUTO 00000KT 10SM OVC014 21/20 A2998 RMK AO2
Observed
Aug-25 @ 08:36 UTC
Visibility
10 SM
Flight Rules
MVFR
Cloud Levels
  • Overcast at 1,400' AGL
Temperature
21°C / 70°F
Dewpoint
20°C / 68°F
Humidity
94%
Altimeter
29.98" Hg
Pressure
1015.22 hPa